Windham, New Hampshire
Current Conditions -  °F | °C
As of 5:54 PM on Friday 31 Oct 2014 (Local Time) from KLWM Reporting Station
Overcast Overcast  
Wind Chill: 45°   Ceiling: 5500
Heat Index: 48°   Visibility: 10mi
Dew Point: 35°   Wind: 7mph
Humidity: 61%   Direction: 60°ENE
Pressure: 30.02"   Gusts: NA
Location:  42.8°N, 71.3°W
Report Text: KLWM 312154Z 06006KT 10SM OVC055 09/02 A3002 RMK AO2 SLP165 T00890017
Loading
Personal Weather Stations






























Interactive Weather Map New forecast layout! Learn more

10-Day Weather Forecast

Advertisements
Track Severe Weather on mobile